< < Back
Terminal Aerodrome Forecast


Current Version              Previous Versions:   1  2  3  4  5  6  7  8  9  

Terminal Aerodrome Forecast

443
FTUS42 KFFC 301940 AAA
TAFCSG
TAF AMD
KCSG 301940Z 3020/0118 24010KT P6SM VCSH BKN050
     FM010100 27008KT P6SM BKN060
     FM010600 26006KT 5SM BR SCT010 SCT060
     FM011400 26006KT P6SM SCT060=

Latest METAR

481
SAUS70 KWBC 010600 RRE
MTRCSG
METAR KCSG 010551Z AUTO 28006KT 10SM FEW049 22/19 A3006 RMK AO2 SLP172
60000 T02220189 10267 20222 50003


USA.gov is the U.S. government's official web portal to all federal, state and local government web resources and services.